sensor_id;sensor_type;location;lat;lon;timestamp;P1;durP1;ratioP1;P2;durP2;ratioP2
10154;SDS011;5118;48.570;7.916;2023-03-26T00:01:35;5.17;;;2.10;;
10154;SDS011;5118;48.570;7.916;2023-03-26T00:04:04;7.40;;;2.37;;
10154;SDS011;5118;48.570;7.916;2023-03-26T00:06:34;8.30;;;2.13;;
10154;SDS011;5118;48.570;7.916;2023-03-26T00:09:06;6.73;;;2.17;;
10154;SDS011;5118;48.570;7.916;2023-03-26T00:11:35;7.10;;;2.37;;
10154;SDS011;5118;48.570;7.916;2023-03-26T00:14:05;6.70;;;2.70;;
10154;SDS011;5118;48.570;7.916;2023-03-26T00:16:35;4.47;;;2.30;;
10154;SDS011;5118;48.570;7.916;2023-03-26T00:19:04;5.80;;;2.50;;
10154;SDS011;5118;48.570;7.916;2023-03-26T00:21:32;6.00;;;2.07;;
10154;SDS011;5118;48.570;7.916;2023-03-26T00:24:01;5.83;;;2.20;;
10154;SDS011;5118;48.570;7.916;2023-03-26T00:26:32;5.67;;;2.23;;
10154;SDS011;5118;48.570;7.916;2023-03-26T00:29:04;5.97;;;2.50;;
10154;SDS011;5118;48.570;7.916;2023-03-26T00:31:35;6.23;;;2.70;;
10154;SDS011;5118;48.570;7.916;2023-03-26T00:34:05;7.13;;;2.27;;
10154;SDS011;5118;48.570;7.916;2023-03-26T00:36:36;5.27;;;2.50;;
10154;SDS011;5118;48.570;7.916;2023-03-26T00:39:04;6.23;;;2.40;;
10154;SDS011;5118;48.570;7.916;2023-03-26T00:41:32;5.63;;;2.40;;
10154;SDS011;5118;48.570;7.916;2023-03-26T00:44:03;5.70;;;2.37;;
10154;SDS011;5118;48.570;7.916;2023-03-26T00:46:33;6.33;;;2.37;;
10154;SDS011;5118;48.570;7.916;2023-03-26T00:49:01;7.30;;;2.53;;
10154;SDS011;5118;48.570;7.916;2023-03-26T00:51:30;6.47;;;3.30;;
10154;SDS011;5118;48.570;7.916;2023-03-26T00:54:00;5.30;;;2.20;;
10154;SDS011;5118;48.570;7.916;2023-03-26T00:56:31;7.23;;;2.77;;
10154;SDS011;5118;48.570;7.916;2023-03-26T00:58:59;6.53;;;2.60;;
10154;SDS011;5118;48.570;7.916;2023-03-26T01:01:28;5.90;;;2.57;;
10154;SDS011;5118;48.570;7.916;2023-03-26T01:06:55;5.90;;;2.23;;
10154;SDS011;5118;48.570;7.916;2023-03-26T01:09:28;9.73;;;2.60;;
10154;SDS011;5118;48.570;7.916;2023-03-26T01:11:59;6.53;;;2.33;;
10154;SDS011;5118;48.570;7.916;2023-03-26T01:14:29;6.40;;;2.57;;
10154;SDS011;5118;48.570;7.916;2023-03-26T01:16:58;6.60;;;2.57;;
10154;SDS011;5118;48.570;7.916;2023-03-26T01:19:32;5.57;;;2.33;;
10154;SDS011;5118;48.570;7.916;2023-03-26T01:22:08;5.43;;;2.40;;
10154;SDS011;5118;48.570;7.916;2023-03-26T01:24:39;7.53;;;2.67;;
10154;SDS011;5118;48.570;7.916;2023-03-26T01:27:11;7.20;;;2.37;;
10154;SDS011;5118;48.570;7.916;2023-03-26T01:29:51;10.10;;;2.40;;
10154;SDS011;5118;48.570;7.916;2023-03-26T01:32:23;4.37;;;2.00;;
10154;SDS011;5118;48.570;7.916;2023-03-26T01:35:07;7.10;;;2.30;;
10154;SDS011;5118;48.570;7.916;2023-03-26T01:37:47;6.17;;;2.57;;
10154;SDS011;5118;48.570;7.916;2023-03-26T01:40:28;8.00;;;2.37;;
10154;SDS011;5118;48.570;7.916;2023-03-26T01:43:10;6.67;;;2.77;;
10154;SDS011;5118;48.570;7.916;2023-03-26T01:45:44;5.93;;;2.47;;
10154;SDS011;5118;48.570;7.916;2023-03-26T01:48:14;5.70;;;2.60;;
10154;SDS011;5118;48.570;7.916;2023-03-26T01:50:43;7.20;;;2.70;;
10154;SDS011;5118;48.570;7.916;2023-03-26T01:53:11;8.27;;;2.90;;
10154;SDS011;5118;48.570;7.916;2023-03-26T01:55:46;6.80;;;2.70;;
10154;SDS011;5118;48.570;7.916;2023-03-26T01:58:26;7.50;;;2.60;;
10154;SDS011;5118;48.570;7.916;2023-03-26T02:01:04;6.70;;;2.90;;
10154;SDS011;5118;48.570;7.916;2023-03-26T02:03:44;6.33;;;2.63;;
10154;SDS011;5118;48.570;7.916;2023-03-26T02:06:21;8.37;;;2.63;;
10154;SDS011;5118;48.570;7.916;2023-03-26T02:08:57;4.97;;;2.30;;
10154;SDS011;5118;48.570;7.916;2023-03-26T02:11:31;7.50;;;2.30;;
10154;SDS011;5118;48.570;7.916;2023-03-26T02:14:02;6.70;;;2.03;;
10154;SDS011;5118;48.570;7.916;2023-03-26T02:16:31;5.80;;;2.67;;
10154;SDS011;5118;48.570;7.916;2023-03-26T02:19:00;5.80;;;2.40;;
10154;SDS011;5118;48.570;7.916;2023-03-26T02:21:30;4.30;;;2.03;;
10154;SDS011;5118;48.570;7.916;2023-03-26T02:23:59;6.43;;;2.60;;
10154;SDS011;5118;48.570;7.916;2023-03-26T02:26:36;5.23;;;2.37;;
10154;SDS011;5118;48.570;7.916;2023-03-26T02:29:09;5.67;;;2.47;;
10154;SDS011;5118;48.570;7.916;2023-03-26T02:31:41;7.67;;;2.70;;
10154;SDS011;5118;48.570;7.916;2023-03-26T02:34:10;5.30;;;2.43;;
10154;SDS011;5118;48.570;7.916;2023-03-26T02:36:44;7.30;;;2.57;;
10154;SDS011;5118;48.570;7.916;2023-03-26T02:39:13;6.20;;;2.70;;
10154;SDS011;5118;48.570;7.916;2023-03-26T02:41:50;7.40;;;2.80;;
10154;SDS011;5118;48.570;7.916;2023-03-26T02:44:19;9.77;;;2.90;;
10154;SDS011;5118;48.570;7.916;2023-03-26T02:46:57;6.57;;;2.90;;
10154;SDS011;5118;48.570;7.916;2023-03-26T02:49:34;9.87;;;3.10;;
10154;SDS011;5118;48.570;7.916;2023-03-26T02:52:03;8.43;;;2.80;;
10154;SDS011;5118;48.570;7.916;2023-03-26T02:54:33;6.57;;;2.90;;
10154;SDS011;5118;48.570;7.916;2023-03-26T02:57:17;10.70;;;2.77;;
10154;SDS011;5118;48.570;7.916;2023-03-26T03:00:04;6.93;;;3.00;;
10154;SDS011;5118;48.570;7.916;2023-03-26T03:02:44;7.47;;;2.50;;
10154;SDS011;5118;48.570;7.916;2023-03-26T03:05:47;9.43;;;2.87;;
10154;SDS011;5118;48.570;7.916;2023-03-26T03:08:36;6.23;;;2.70;;
10154;SDS011;5118;48.570;7.916;2023-03-26T03:11:24;7.73;;;2.43;;
10154;SDS011;5118;48.570;7.916;2023-03-26T03:13:54;6.43;;;2.17;;
10154;SDS011;5118;48.570;7.916;2023-03-26T03:16:28;8.83;;;2.70;;
10154;SDS011;5118;48.570;7.916;2023-03-26T03:19:02;7.40;;;2.30;;
10154;SDS011;5118;48.570;7.916;2023-03-26T03:21:39;6.23;;;2.30;;
10154;SDS011;5118;48.570;7.916;2023-03-26T03:24:08;6.27;;;2.23;;
10154;SDS011;5118;48.570;7.916;2023-03-26T03:26:42;9.87;;;2.57;;
10154;SDS011;5118;48.570;7.916;2023-03-26T03:29:33;8.20;;;2.53;;
10154;SDS011;5118;48.570;7.916;2023-03-26T03:32:24;7.27;;;3.07;;
10154;SDS011;5118;48.570;7.916;2023-03-26T03:34:57;6.00;;;2.43;;
10154;SDS011;5118;48.570;7.916;2023-03-26T03:37:27;4.37;;;2.13;;
10154;SDS011;5118;48.570;7.916;2023-03-26T03:39:57;5.10;;;2.00;;
10154;SDS011;5118;48.570;7.916;2023-03-26T03:42:28;8.17;;;2.33;;
10154;SDS011;5118;48.570;7.916;2023-03-26T03:45:01;5.17;;;2.27;;
10154;SDS011;5118;48.570;7.916;2023-03-26T03:47:56;7.67;;;2.33;;
10154;SDS011;5118;48.570;7.916;2023-03-26T03:50:38;5.03;;;2.23;;
10154;SDS011;5118;48.570;7.916;2023-03-26T03:53:23;5.80;;;2.50;;
10154;SDS011;5118;48.570;7.916;2023-03-26T03:55:54;4.80;;;2.27;;
10154;SDS011;5118;48.570;7.916;2023-03-26T03:58:46;4.10;;;2.00;;
10154;SDS011;5118;48.570;7.916;2023-03-26T04:01:24;8.07;;;2.20;;
10154;SDS011;5118;48.570;7.916;2023-03-26T04:04:00;9.37;;;2.60;;
10154;SDS011;5118;48.570;7.916;2023-03-26T04:06:43;6.47;;;2.43;;
10154;SDS011;5118;48.570;7.916;2023-03-26T04:09:14;6.97;;;2.40;;
10154;SDS011;5118;48.570;7.916;2023-03-26T04:11:45;6.33;;;2.10;;
10154;SDS011;5118;48.570;7.916;2023-03-26T04:14:36;4.77;;;2.33;;
10154;SDS011;5118;48.570;7.916;2023-03-26T04:17:18;6.43;;;2.50;;
10154;SDS011;5118;48.570;7.916;2023-03-26T04:19:48;4.17;;;2.27;;
10154;SDS011;5118;48.570;7.916;2023-03-26T04:22:19;7.20;;;2.17;;
10154;SDS011;5118;48.570;7.916;2023-03-26T04:24:56;8.07;;;2.33;;
10154;SDS011;5118;48.570;7.916;2023-03-26T04:27:31;7.73;;;2.37;;
10154;SDS011;5118;48.570;7.916;2023-03-26T04:30:21;6.23;;;2.07;;
10154;SDS011;5118;48.570;7.916;2023-03-26T04:32:58;5.80;;;2.30;;
10154;SDS011;5118;48.570;7.916;2023-03-26T04:35:32;6.63;;;2.20;;
10154;SDS011;5118;48.570;7.916;2023-03-26T04:38:02;7.50;;;2.30;;
10154;SDS011;5118;48.570;7.916;2023-03-26T04:40:36;7.60;;;2.43;;
10154;SDS011;5118;48.570;7.916;2023-03-26T04:43:33;6.50;;;2.40;;
10154;SDS011;5118;48.570;7.916;2023-03-26T04:46:18;6.63;;;2.17;;
10154;SDS011;5118;48.570;7.916;2023-03-26T04:48:55;6.17;;;2.20;;
10154;SDS011;5118;48.570;7.916;2023-03-26T04:51:27;8.93;;;2.17;;
10154;SDS011;5118;48.570;7.916;2023-03-26T04:54:11;9.00;;;2.50;;
10154;SDS011;5118;48.570;7.916;2023-03-26T04:56:53;8.03;;;2.40;;
10154;SDS011;5118;48.570;7.916;2023-03-26T04:59:35;10.03;;;2.43;;
10154;SDS011;5118;48.570;7.916;2023-03-26T05:02:06;6.33;;;2.40;;
10154;SDS011;5118;48.570;7.916;2023-03-26T05:04:56;5.47;;;2.30;;
10154;SDS011;5118;48.570;7.916;2023-03-26T05:07:28;11.50;;;3.43;;
10154;SDS011;5118;48.570;7.916;2023-03-26T05:09:59;10.00;;;3.60;;
10154;SDS011;5118;48.570;7.916;2023-03-26T05:12:49;8.20;;;3.73;;
10154;SDS011;5118;48.570;7.916;2023-03-26T05:15:22;8.93;;;3.07;;
10154;SDS011;5118;48.570;7.916;2023-03-26T05:17:56;8.33;;;3.53;;
10154;SDS011;5118;48.570;7.916;2023-03-26T05:20:38;5.97;;;2.47;;
10154;SDS011;5118;48.570;7.916;2023-03-26T05:23:08;7.37;;;2.60;;
10154;SDS011;5118;48.570;7.916;2023-03-26T05:25:42;8.07;;;2.43;;
10154;SDS011;5118;48.570;7.916;2023-03-26T05:28:16;9.23;;;2.53;;
10154;SDS011;5118;48.570;7.916;2023-03-26T05:30:59;7.87;;;2.60;;
10154;SDS011;5118;48.570;7.916;2023-03-26T05:33:32;7.90;;;2.50;;
10154;SDS011;5118;48.570;7.916;2023-03-26T05:36:10;5.33;;;2.30;;
10154;SDS011;5118;48.570;7.916;2023-03-26T05:38:48;5.97;;;2.27;;
10154;SDS011;5118;48.570;7.916;2023-03-26T05:41:36;11.70;;;2.63;;
10154;SDS011;5118;48.570;7.916;2023-03-26T05:44:04;5.40;;;2.13;;
10154;SDS011;5118;48.570;7.916;2023-03-26T05:46:33;7.13;;;2.50;;
10154;SDS011;5118;48.570;7.916;2023-03-26T05:49:01;7.43;;;2.40;;
10154;SDS011;5118;48.570;7.916;2023-03-26T05:51:34;8.17;;;2.57;;
10154;SDS011;5118;48.570;7.916;2023-03-26T05:54:21;7.87;;;2.50;;
10154;SDS011;5118;48.570;7.916;2023-03-26T05:57:22;7.03;;;2.30;;
10154;SDS011;5118;48.570;7.916;2023-03-26T06:00:17;6.50;;;2.40;;
10154;SDS011;5118;48.570;7.916;2023-03-26T06:02:45;8.23;;;2.60;;
10154;SDS011;5118;48.570;7.916;2023-03-26T06:05:34;10.87;;;2.60;;
10154;SDS011;5118;48.570;7.916;2023-03-26T06:08:16;7.80;;;2.43;;
10154;SDS011;5118;48.570;7.916;2023-03-26T06:10:49;7.77;;;2.30;;
10154;SDS011;5118;48.570;7.916;2023-03-26T06:13:18;8.90;;;2.40;;
10154;SDS011;5118;48.570;7.916;2023-03-26T06:15:48;7.23;;;2.70;;
10154;SDS011;5118;48.570;7.916;2023-03-26T06:18:35;7.60;;;2.57;;
10154;SDS011;5118;48.570;7.916;2023-03-26T06:21:26;6.67;;;2.60;;
10154;SDS011;5118;48.570;7.916;2023-03-26T06:24:02;8.83;;;2.20;;
10154;SDS011;5118;48.570;7.916;2023-03-26T06:26:46;6.77;;;2.40;;
10154;SDS011;5118;48.570;7.916;2023-03-26T06:29:20;6.87;;;2.30;;
10154;SDS011;5118;48.570;7.916;2023-03-26T06:32:07;7.97;;;2.53;;
10154;SDS011;5118;48.570;7.916;2023-03-26T06:34:52;6.60;;;2.40;;
10154;SDS011;5118;48.570;7.916;2023-03-26T06:37:20;7.70;;;2.47;;
10154;SDS011;5118;48.570;7.916;2023-03-26T06:39:56;7.00;;;2.30;;
10154;SDS011;5118;48.570;7.916;2023-03-26T06:43:03;6.70;;;2.47;;
10154;SDS011;5118;48.570;7.916;2023-03-26T06:46:15;6.63;;;2.67;;
10154;SDS011;5118;48.570;7.916;2023-03-26T06:49:05;6.13;;;2.80;;
10154;SDS011;5118;48.570;7.916;2023-03-26T06:52:04;5.87;;;2.60;;
10154;SDS011;5118;48.570;7.916;2023-03-26T06:54:46;6.73;;;2.43;;
10154;SDS011;5118;48.570;7.916;2023-03-26T06:57:42;6.43;;;2.90;;
10154;SDS011;5118;48.570;7.916;2023-03-26T07:00:35;9.00;;;2.80;;
10154;SDS011;5118;48.570;7.916;2023-03-26T07:03:24;8.20;;;3.30;;
10154;SDS011;5118;48.570;7.916;2023-03-26T07:06:11;6.87;;;2.93;;
10154;SDS011;5118;48.570;7.916;2023-03-26T07:08:58;5.43;;;2.90;;
10154;SDS011;5118;48.570;7.916;2023-03-26T07:11:45;7.43;;;2.50;;
10154;SDS011;5118;48.570;7.916;2023-03-26T07:14:47;3.77;;;2.47;;
10154;SDS011;5118;48.570;7.916;2023-03-26T07:17:34;7.13;;;2.50;;
10154;SDS011;5118;48.570;7.916;2023-03-26T07:20:10;5.50;;;2.57;;
10154;SDS011;5118;48.570;7.916;2023-03-26T07:22:41;7.43;;;2.70;;
10154;SDS011;5118;48.570;7.916;2023-03-26T07:25:16;7.07;;;2.57;;
10154;SDS011;5118;48.570;7.916;2023-03-26T07:28:05;6.40;;;2.37;;
10154;SDS011;5118;48.570;7.916;2023-03-26T07:30:57;5.30;;;2.63;;
10154;SDS011;5118;48.570;7.916;2023-03-26T07:33:36;5.50;;;2.50;;
10154;SDS011;5118;48.570;7.916;2023-03-26T07:36:30;7.77;;;2.73;;
10154;SDS011;5118;48.570;7.916;2023-03-26T07:39:20;8.33;;;3.03;;
10154;SDS011;5118;48.570;7.916;2023-03-26T07:42:23;8.40;;;2.57;;
10154;SDS011;5118;48.570;7.916;2023-03-26T07:45:39;7.60;;;2.53;;
10154;SDS011;5118;48.570;7.916;2023-03-26T07:48:24;6.57;;;2.40;;
10154;SDS011;5118;48.570;7.916;2023-03-26T07:51:27;5.43;;;2.70;;
10154;SDS011;5118;48.570;7.916;2023-03-26T07:54:09;8.63;;;2.77;;
10154;SDS011;5118;48.570;7.916;2023-03-26T07:56:38;3.90;;;2.20;;
10154;SDS011;5118;48.570;7.916;2023-03-26T07:59:37;4.50;;;2.77;;
10154;SDS011;5118;48.570;7.916;2023-03-26T08:02:50;4.83;;;2.57;;
10154;SDS011;5118;48.570;7.916;2023-03-26T08:05:56;4.93;;;2.27;;
10154;SDS011;5118;48.570;7.916;2023-03-26T08:08:57;5.10;;;2.30;;
10154;SDS011;5118;48.570;7.916;2023-03-26T08:11:37;4.20;;;2.10;;
10154;SDS011;5118;48.570;7.916;2023-03-26T08:14:18;5.77;;;2.50;;
10154;SDS011;5118;48.570;7.916;2023-03-26T08:16:52;5.40;;;2.50;;
10154;SDS011;5118;48.570;7.916;2023-03-26T08:19:34;6.47;;;2.33;;
10154;SDS011;5118;48.570;7.916;2023-03-26T08:22:14;3.57;;;2.33;;
10154;SDS011;5118;48.570;7.916;2023-03-26T08:24:57;4.27;;;2.20;;
10154;SDS011;5118;48.570;7.916;2023-03-26T08:27:38;4.03;;;2.37;;
10154;SDS011;5118;48.570;7.916;2023-03-26T08:30:10;3.57;;;2.10;;
10154;SDS011;5118;48.570;7.916;2023-03-26T08:32:48;3.77;;;2.10;;
10154;SDS011;5118;48.570;7.916;2023-03-26T08:35:21;5.00;;;2.37;;
10154;SDS011;5118;48.570;7.916;2023-03-26T08:37:51;3.17;;;2.07;;
10154;SDS011;5118;48.570;7.916;2023-03-26T08:40:24;4.00;;;2.40;;
10154;SDS011;5118;48.570;7.916;2023-03-26T08:46:26;4.93;;;2.50;;
10154;SDS011;5118;48.570;7.916;2023-03-26T08:49:33;4.47;;;2.40;;
10154;SDS011;5118;48.570;7.916;2023-03-26T08:52:20;2.87;;;2.17;;
10154;SDS011;5118;48.570;7.916;2023-03-26T08:55:21;3.87;;;1.90;;
10154;SDS011;5118;48.570;7.916;2023-03-26T08:58:08;3.60;;;1.83;;
10154;SDS011;5118;48.570;7.916;2023-03-26T09:01:14;2.90;;;1.80;;
10154;SDS011;5118;48.570;7.916;2023-03-26T09:04:03;5.17;;;2.10;;
10154;SDS011;5118;48.570;7.916;2023-03-26T09:07:08;3.40;;;2.17;;
10154;SDS011;5118;48.570;7.916;2023-03-26T09:13:14;1.40;;;1.30;;
10154;SDS011;5118;48.570;7.916;2023-03-26T09:22:11;1.27;;;1.10;;
10154;SDS011;5118;48.570;7.916;2023-03-26T09:25:11;1.97;;;1.30;;
10154;SDS011;5118;48.570;7.916;2023-03-26T09:28:00;1.97;;;1.40;;
10154;SDS011;5118;48.570;7.916;2023-03-26T09:31:14;1.93;;;1.50;;
10154;SDS011;5118;48.570;7.916;2023-03-26T09:33:57;1.73;;;1.03;;
10154;SDS011;5118;48.570;7.916;2023-03-26T09:36:51;2.03;;;1.30;;
10154;SDS011;5118;48.570;7.916;2023-03-26T09:39:28;2.45;;;1.20;;
10154;SDS011;5118;48.570;7.916;2023-03-26T09:42:07;2.30;;;1.37;;
10154;SDS011;5118;48.570;7.916;2023-03-26T09:44:56;1.37;;;1.27;;
10154;SDS011;5118;48.570;7.916;2023-03-26T09:47:57;1.97;;;1.30;;
10154;SDS011;5118;48.570;7.916;2023-03-26T09:50:55;2.40;;;1.70;;
10154;SDS011;5118;48.570;7.916;2023-03-26T09:53:46;1.90;;;1.30;;
10154;SDS011;5118;48.570;7.916;2023-03-26T09:56:30;1.90;;;1.30;;
10154;SDS011;5118;48.570;7.916;2023-03-26T09:59:19;2.30;;;1.80;;
10154;SDS011;5118;48.570;7.916;2023-03-26T10:01:58;3.33;;;1.80;;
10154;SDS011;5118;48.570;7.916;2023-03-26T10:04:43;1.90;;;1.53;;
10154;SDS011;5118;48.570;7.916;2023-03-26T10:07:32;4.27;;;1.30;;
10154;SDS011;5118;48.570;7.916;2023-03-26T10:10:17;1.80;;;1.30;;
10154;SDS011;5118;48.570;7.916;2023-03-26T10:12:53;1.90;;;1.33;;
10154;SDS011;5118;48.570;7.916;2023-03-26T10:15:45;3.37;;;1.47;;
10154;SDS011;5118;48.570;7.916;2023-03-26T10:18:32;2.17;;;1.30;;
10154;SDS011;5118;48.570;7.916;2023-03-26T10:21:10;2.90;;;1.70;;
10154;SDS011;5118;48.570;7.916;2023-03-26T10:23:52;1.40;;;1.30;;
10154;SDS011;5118;48.570;7.916;2023-03-26T10:26:38;3.13;;;1.53;;
10154;SDS011;5118;48.570;7.916;2023-03-26T10:30:00;1.70;;;1.20;;
10154;SDS011;5118;48.570;7.916;2023-03-26T10:32:54;2.73;;;1.37;;
10154;SDS011;5118;48.570;7.916;2023-03-26T10:35:35;2.63;;;1.50;;
10154;SDS011;5118;48.570;7.916;2023-03-26T10:38:15;3.57;;;1.27;;
10154;SDS011;5118;48.570;7.916;2023-03-26T10:40:54;3.40;;;1.70;;
10154;SDS011;5118;48.570;7.916;2023-03-26T10:43:42;4.67;;;1.70;;
10154;SDS011;5118;48.570;7.916;2023-03-26T10:46:35;3.83;;;1.43;;
10154;SDS011;5118;48.570;7.916;2023-03-26T10:49:34;1.57;;;1.10;;
10154;SDS011;5118;48.570;7.916;2023-03-26T10:52:16;2.10;;;1.20;;
10154;SDS011;5118;48.570;7.916;2023-03-26T10:54:50;4.83;;;1.47;;
10154;SDS011;5118;48.570;7.916;2023-03-26T10:57:28;2.30;;;1.27;;
10154;SDS011;5118;48.570;7.916;2023-03-26T11:00:12;2.13;;;1.30;;
10154;SDS011;5118;48.570;7.916;2023-03-26T11:02:55;2.50;;;1.40;;
10154;SDS011;5118;48.570;7.916;2023-03-26T11:05:48;4.53;;;1.63;;
10154;SDS011;5118;48.570;7.916;2023-03-26T11:08:27;3.00;;;1.87;;
10154;SDS011;5118;48.570;7.916;2023-03-26T11:11:08;4.77;;;1.60;;
10154;SDS011;5118;48.570;7.916;2023-03-26T11:13:48;4.53;;;1.80;;
10154;SDS011;5118;48.570;7.916;2023-03-26T11:16:28;2.93;;;1.67;;
10154;SDS011;5118;48.570;7.916;2023-03-26T11:19:08;3.83;;;1.60;;
10154;SDS011;5118;48.570;7.916;2023-03-26T11:21:44;4.30;;;1.50;;
10154;SDS011;5118;48.570;7.916;2023-03-26T11:27:19;2.97;;;1.60;;
10154;SDS011;5118;48.570;7.916;2023-03-26T11:29:57;2.50;;;1.40;;
10154;SDS011;5118;48.570;7.916;2023-03-26T11:32:36;3.20;;;1.50;;
10154;SDS011;5118;48.570;7.916;2023-03-26T11:35:12;3.63;;;1.50;;
10154;SDS011;5118;48.570;7.916;2023-03-26T11:38:06;3.83;;;1.50;;
10154;SDS011;5118;48.570;7.916;2023-03-26T11:40:44;3.83;;;1.90;;
10154;SDS011;5118;48.570;7.916;2023-03-26T11:43:36;2.53;;;1.50;;
10154;SDS011;5118;48.570;7.916;2023-03-26T11:46:06;1.70;;;1.00;;
10154;SDS011;5118;48.570;7.916;2023-03-26T11:48:39;3.37;;;1.47;;
10154;SDS011;5118;48.570;7.916;2023-03-26T11:51:12;2.87;;;1.50;;
10154;SDS011;5118;48.570;7.916;2023-03-26T11:53:45;2.67;;;1.50;;
10154;SDS011;5118;48.570;7.916;2023-03-26T11:56:16;2.00;;;1.30;;
10154;SDS011;5118;48.570;7.916;2023-03-26T11:58:53;1.77;;;1.30;;
10154;SDS011;5118;48.570;7.916;2023-03-26T12:01:27;2.03;;;1.30;;
10154;SDS011;5118;48.570;7.916;2023-03-26T12:04:10;2.20;;;1.40;;
10154;SDS011;5118;48.570;7.916;2023-03-26T12:06:48;4.07;;;2.00;;
10154;SDS011;5118;48.570;7.916;2023-03-26T12:09:19;2.37;;;1.47;;
10154;SDS011;5118;48.570;7.916;2023-03-26T12:11:51;4.07;;;2.57;;
10154;SDS011;5118;48.570;7.916;2023-03-26T12:14:22;3.87;;;2.10;;
10154;SDS011;5118;48.570;7.916;2023-03-26T12:16:57;4.30;;;1.90;;
10154;SDS011;5118;48.570;7.916;2023-03-26T12:19:33;4.93;;;3.90;;
10154;SDS011;5118;48.570;7.916;2023-03-26T12:22:05;7.40;;;3.50;;
10154;SDS011;5118;48.570;7.916;2023-03-26T12:24:59;23.10;;;12.33;;
10154;SDS011;5118;48.570;7.916;2023-03-26T12:27:31;13.93;;;7.83;;
10154;SDS011;5118;48.570;7.916;2023-03-26T12:30:08;9.03;;;4.43;;
10154;SDS011;5118;48.570;7.916;2023-03-26T12:32:38;3.07;;;2.03;;
10154;SDS011;5118;48.570;7.916;2023-03-26T12:35:13;3.73;;;1.50;;
10154;SDS011;5118;48.570;7.916;2023-03-26T12:37:45;3.03;;;1.80;;
10154;SDS011;5118;48.570;7.916;2023-03-26T12:40:28;2.17;;;1.40;;
10154;SDS011;5118;48.570;7.916;2023-03-26T12:43:02;1.40;;;1.10;;
10154;SDS011;5118;48.570;7.916;2023-03-26T12:45:53;5.47;;;1.50;;
10154;SDS011;5118;48.570;7.916;2023-03-26T12:48:45;3.27;;;1.60;;
10154;SDS011;5118;48.570;7.916;2023-03-26T12:51:15;3.73;;;1.47;;
10154;SDS011;5118;48.570;7.916;2023-03-26T12:54:12;3.13;;;1.20;;
10154;SDS011;5118;48.570;7.916;2023-03-26T12:56:58;3.47;;;1.33;;
10154;SDS011;5118;48.570;7.916;2023-03-26T12:59:50;3.40;;;1.53;;
10154;SDS011;5118;48.570;7.916;2023-03-26T13:02:53;3.00;;;1.73;;
10154;SDS011;5118;48.570;7.916;2023-03-26T13:11:36;5.33;;;1.70;;
10154;SDS011;5118;48.570;7.916;2023-03-26T13:14:25;3.63;;;1.60;;
10154;SDS011;5118;48.570;7.916;2023-03-26T13:17:03;3.73;;;1.43;;
10154;SDS011;5118;48.570;7.916;2023-03-26T13:19:38;22.80;;;2.07;;
10154;SDS011;5118;48.570;7.916;2023-03-26T13:22:16;21.17;;;2.40;;
10154;SDS011;5118;48.570;7.916;2023-03-26T13:24:54;5.80;;;1.90;;
10154;SDS011;5118;48.570;7.916;2023-03-26T13:27:35;6.87;;;2.90;;
10154;SDS011;5118;48.570;7.916;2023-03-26T13:30:14;5.70;;;2.10;;
10154;SDS011;5118;48.570;7.916;2023-03-26T13:32:57;8.80;;;3.40;;
10154;SDS011;5118;48.570;7.916;2023-03-26T13:35:42;4.33;;;1.77;;
10154;SDS011;5118;48.570;7.916;2023-03-26T13:38:18;7.40;;;1.80;;
10154;SDS011;5118;48.570;7.916;2023-03-26T13:40:54;3.07;;;1.67;;
10154;SDS011;5118;48.570;7.916;2023-03-26T13:43:33;3.63;;;1.40;;
10154;SDS011;5118;48.570;7.916;2023-03-26T13:46:15;4.57;;;1.33;;
10154;SDS011;5118;48.570;7.916;2023-03-26T13:48:53;2.93;;;1.70;;
10154;SDS011;5118;48.570;7.916;2023-03-26T13:51:29;2.17;;;1.23;;
10154;SDS011;5118;48.570;7.916;2023-03-26T13:54:04;3.33;;;1.70;;
10154;SDS011;5118;48.570;7.916;2023-03-26T13:56:43;3.50;;;1.20;;
10154;SDS011;5118;48.570;7.916;2023-03-26T13:59:17;3.07;;;2.43;;
10154;SDS011;5118;48.570;7.916;2023-03-26T14:01:51;3.83;;;1.67;;
10154;SDS011;5118;48.570;7.916;2023-03-26T14:04:26;3.57;;;1.87;;
10154;SDS011;5118;48.570;7.916;2023-03-26T14:06:59;5.67;;;3.40;;
10154;SDS011;5118;48.570;7.916;2023-03-26T14:09:35;4.60;;;3.70;;
10154;SDS011;5118;48.570;7.916;2023-03-26T14:12:15;4.47;;;3.00;;
10154;SDS011;5118;48.570;7.916;2023-03-26T14:14:52;5.37;;;1.40;;
10154;SDS011;5118;48.570;7.916;2023-03-26T14:17:25;4.50;;;1.70;;
10154;SDS011;5118;48.570;7.916;2023-03-26T14:23:27;4.13;;;2.30;;
10154;SDS011;5118;48.570;7.916;2023-03-26T14:26:09;2.90;;;1.10;;
10154;SDS011;5118;48.570;7.916;2023-03-26T14:31:51;2.13;;;1.27;;
10154;SDS011;5118;48.570;7.916;2023-03-26T14:34:58;2.23;;;1.50;;
10154;SDS011;5118;48.570;7.916;2023-03-26T14:40:53;5.50;;;4.37;;
10154;SDS011;5118;48.570;7.916;2023-03-26T14:43:29;3.17;;;2.60;;
10154;SDS011;5118;48.570;7.916;2023-03-26T14:46:20;12.63;;;10.20;;
10154;SDS011;5118;48.570;7.916;2023-03-26T14:49:12;11.13;;;9.60;;
10154;SDS011;5118;48.570;7.916;2023-03-26T14:51:57;5.03;;;3.50;;
10154;SDS011;5118;48.570;7.916;2023-03-26T14:54:31;1.77;;;1.60;;
10154;SDS011;5118;48.570;7.916;2023-03-26T15:13:09;1.70;;;1.60;;
10154;SDS011;5118;48.570;7.916;2023-03-26T15:15:57;2.30;;;1.43;;
10154;SDS011;5118;48.570;7.916;2023-03-26T15:34:44;2.07;;;1.47;;
10154;SDS011;5118;48.570;7.916;2023-03-26T15:40:50;1.27;;;1.17;;
10154;SDS011;5118;48.570;7.916;2023-03-26T15:43:29;1.57;;;1.20;;
10154;SDS011;5118;48.570;7.916;2023-03-26T15:50:05;1.20;;;1.10;;
10154;SDS011;5118;48.570;7.916;2023-03-26T15:52:47;1.30;;;1.20;;
10154;SDS011;5118;48.570;7.916;2023-03-26T15:55:24;1.53;;;1.20;;
10154;SDS011;5118;48.570;7.916;2023-03-26T15:58:01;2.60;;;1.70;;
10154;SDS011;5118;48.570;7.916;2023-03-26T16:00:37;1.57;;;1.43;;
10154;SDS011;5118;48.570;7.916;2023-03-26T16:03:26;1.70;;;1.50;;
10154;SDS011;5118;48.570;7.916;2023-03-26T16:09:15;1.30;;;1.20;;
10154;SDS011;5118;48.570;7.916;2023-03-26T16:11:54;2.80;;;1.60;;
10154;SDS011;5118;48.570;7.916;2023-03-26T16:14:34;1.70;;;1.50;;
10154;SDS011;5118;48.570;7.916;2023-03-26T16:17:11;2.10;;;1.90;;
10154;SDS011;5118;48.570;7.916;2023-03-26T16:19:53;2.70;;;2.00;;
10154;SDS011;5118;48.570;7.916;2023-03-26T16:22:52;2.50;;;1.67;;
10154;SDS011;5118;48.570;7.916;2023-03-26T16:25:26;2.03;;;1.20;;
10154;SDS011;5118;48.570;7.916;2023-03-26T16:34:18;1.30;;;1.07;;
10154;SDS011;5118;48.570;7.916;2023-03-26T16:36:52;1.13;;;0.90;;
10154;SDS011;5118;48.570;7.916;2023-03-26T16:39:23;0.70;;;0.70;;
10154;SDS011;5118;48.570;7.916;2023-03-26T16:45:05;1.97;;;1.00;;
10154;SDS011;5118;48.570;7.916;2023-03-26T16:47:46;0.77;;;0.73;;
10154;SDS011;5118;48.570;7.916;2023-03-26T16:50:22;0.90;;;0.90;;
10154;SDS011;5118;48.570;7.916;2023-03-26T16:53:00;1.33;;;1.00;;
10154;SDS011;5118;48.570;7.916;2023-03-26T16:55:45;1.80;;;1.67;;
10154;SDS011;5118;48.570;7.916;2023-03-26T16:58:24;1.30;;;1.20;;
10154;SDS011;5118;48.570;7.916;2023-03-26T17:01:04;1.00;;;1.00;;
10154;SDS011;5118;48.570;7.916;2023-03-26T17:03:41;1.23;;;1.10;;
10154;SDS011;5118;48.570;7.916;2023-03-26T17:06:24;1.40;;;1.30;;
10154;SDS011;5118;48.570;7.916;2023-03-26T17:09:01;2.70;;;2.50;;
10154;SDS011;5118;48.570;7.916;2023-03-26T17:11:45;2.67;;;2.00;;
10154;SDS011;5118;48.570;7.916;2023-03-26T17:14:29;4.83;;;2.97;;
10154;SDS011;5118;48.570;7.916;2023-03-26T17:17:09;3.40;;;3.00;;
10154;SDS011;5118;48.570;7.916;2023-03-26T17:19:50;3.40;;;2.30;;
10154;SDS011;5118;48.570;7.916;2023-03-26T17:22:31;2.23;;;2.00;;
10154;SDS011;5118;48.570;7.916;2023-03-26T17:25:27;2.43;;;2.23;;
10154;SDS011;5118;48.570;7.916;2023-03-26T17:28:17;2.50;;;2.10;;
10154;SDS011;5118;48.570;7.916;2023-03-26T17:30:56;1.70;;;1.60;;
10154;SDS011;5118;48.570;7.916;2023-03-26T17:33:30;2.10;;;1.90;;
10154;SDS011;5118;48.570;7.916;2023-03-26T17:38:58;1.93;;;1.40;;
10154;SDS011;5118;48.570;7.916;2023-03-26T17:41:50;1.60;;;1.30;;
10154;SDS011;5118;48.570;7.916;2023-03-26T17:44:34;1.93;;;1.20;;
10154;SDS011;5118;48.570;7.916;2023-03-26T17:47:12;1.60;;;1.23;;
10154;SDS011;5118;48.570;7.916;2023-03-26T17:49:47;1.40;;;1.10;;